sensor_id;sensor_type;location;lat;lon;timestamp;P1;durP1;ratioP1;P2;durP2;ratioP2
76733;SDS011;65660;53.288;14.666;2023-03-21T00:02:33;15.03;;;10.03;;
76733;SDS011;65660;53.288;14.666;2023-03-21T00:07:33;16.47;;;9.60;;
76733;SDS011;65660;53.288;14.666;2023-03-21T00:12:34;15.67;;;9.07;;
76733;SDS011;65660;53.288;14.666;2023-03-21T00:17:34;14.57;;;9.23;;
76733;SDS011;65660;53.288;14.666;2023-03-21T00:22:35;17.23;;;9.40;;
76733;SDS011;65660;53.288;14.666;2023-03-21T00:27:36;13.63;;;9.00;;
76733;SDS011;65660;53.288;14.666;2023-03-21T00:32:36;15.93;;;9.10;;
76733;SDS011;65660;53.288;14.666;2023-03-21T00:37:37;16.03;;;9.37;;
76733;SDS011;65660;53.288;14.666;2023-03-21T00:42:38;15.93;;;9.10;;
76733;SDS011;65660;53.288;14.666;2023-03-21T00:47:38;13.33;;;8.63;;
76733;SDS011;65660;53.288;14.666;2023-03-21T00:52:39;15.00;;;8.93;;
76733;SDS011;65660;53.288;14.666;2023-03-21T00:57:39;15.87;;;9.07;;
76733;SDS011;65660;53.288;14.666;2023-03-21T01:02:40;15.63;;;8.50;;
76733;SDS011;65660;53.288;14.666;2023-03-21T01:07:41;15.77;;;8.43;;
76733;SDS011;65660;53.288;14.666;2023-03-21T01:12:41;14.83;;;8.27;;
76733;SDS011;65660;53.288;14.666;2023-03-21T01:17:41;14.40;;;8.47;;
76733;SDS011;65660;53.288;14.666;2023-03-21T01:22:42;14.63;;;8.63;;
76733;SDS011;65660;53.288;14.666;2023-03-21T01:27:42;16.20;;;9.00;;
76733;SDS011;65660;53.288;14.666;2023-03-21T01:32:43;15.07;;;8.13;;
76733;SDS011;65660;53.288;14.666;2023-03-21T01:37:43;12.97;;;8.17;;
76733;SDS011;65660;53.288;14.666;2023-03-21T01:42:44;13.47;;;7.57;;
76733;SDS011;65660;53.288;14.666;2023-03-21T01:47:45;13.23;;;7.80;;
76733;SDS011;65660;53.288;14.666;2023-03-21T01:52:45;13.57;;;8.00;;
76733;SDS011;65660;53.288;14.666;2023-03-21T01:57:46;18.43;;;8.80;;
76733;SDS011;65660;53.288;14.666;2023-03-21T02:02:49;14.00;;;8.60;;
76733;SDS011;65660;53.288;14.666;2023-03-21T02:07:50;14.47;;;8.80;;
76733;SDS011;65660;53.288;14.666;2023-03-21T02:12:51;16.87;;;9.40;;
76733;SDS011;65660;53.288;14.666;2023-03-21T02:17:53;16.80;;;9.80;;
76733;SDS011;65660;53.288;14.666;2023-03-21T02:50:16;18.23;;;11.30;;
76733;SDS011;65660;53.288;14.666;2023-03-21T02:55:21;18.97;;;10.97;;
76733;SDS011;65660;53.288;14.666;2023-03-21T03:00:24;20.23;;;11.37;;
76733;SDS011;65660;53.288;14.666;2023-03-21T03:05:28;22.27;;;13.03;;
76733;SDS011;65660;53.288;14.666;2023-03-21T03:10:45;17.97;;;11.50;;
76733;SDS011;65660;53.288;14.666;2023-03-21T03:21:02;19.77;;;11.30;;
76733;SDS011;65660;53.288;14.666;2023-03-21T03:26:13;19.73;;;11.30;;
76733;SDS011;65660;53.288;14.666;2023-03-21T03:31:18;18.20;;;11.13;;
76733;SDS011;65660;53.288;14.666;2023-03-21T03:36:26;19.23;;;10.90;;
76733;SDS011;65660;53.288;14.666;2023-03-21T03:41:29;20.73;;;11.50;;
76733;SDS011;65660;53.288;14.666;2023-03-21T03:46:31;23.47;;;12.33;;
76733;SDS011;65660;53.288;14.666;2023-03-21T03:51:41;20.57;;;12.20;;
76733;SDS011;65660;53.288;14.666;2023-03-21T03:56:53;18.90;;;11.40;;
76733;SDS011;65660;53.288;14.666;2023-03-21T04:01:54;20.07;;;11.57;;
76733;SDS011;65660;53.288;14.666;2023-03-21T04:06:54;19.87;;;10.13;;
76733;SDS011;65660;53.288;14.666;2023-03-21T04:11:55;15.57;;;9.83;;
76733;SDS011;65660;53.288;14.666;2023-03-21T04:16:56;18.37;;;9.80;;
76733;SDS011;65660;53.288;14.666;2023-03-21T04:21:56;15.43;;;8.63;;
76733;SDS011;65660;53.288;14.666;2023-03-21T04:26:57;18.93;;;10.77;;
76733;SDS011;65660;53.288;14.666;2023-03-21T04:31:57;18.30;;;10.13;;
76733;SDS011;65660;53.288;14.666;2023-03-21T04:36:58;17.60;;;10.30;;
76733;SDS011;65660;53.288;14.666;2023-03-21T04:41:58;18.97;;;10.27;;
76733;SDS011;65660;53.288;14.666;2023-03-21T04:46:59;19.33;;;11.10;;
76733;SDS011;65660;53.288;14.666;2023-03-21T04:51:59;18.77;;;11.50;;
76733;SDS011;65660;53.288;14.666;2023-03-21T04:57:00;18.87;;;11.13;;
76733;SDS011;65660;53.288;14.666;2023-03-21T05:02:00;20.50;;;11.20;;
76733;SDS011;65660;53.288;14.666;2023-03-21T05:07:01;22.30;;;12.33;;
76733;SDS011;65660;53.288;14.666;2023-03-21T05:12:01;22.60;;;12.43;;
76733;SDS011;65660;53.288;14.666;2023-03-21T05:17:02;20.20;;;11.17;;
76733;SDS011;65660;53.288;14.666;2023-03-21T05:22:04;20.50;;;11.97;;
76733;SDS011;65660;53.288;14.666;2023-03-21T05:27:06;22.07;;;12.67;;
76733;SDS011;65660;53.288;14.666;2023-03-21T05:32:07;21.93;;;11.60;;
76733;SDS011;65660;53.288;14.666;2023-03-21T05:37:07;21.07;;;10.77;;
76733;SDS011;65660;53.288;14.666;2023-03-21T05:42:08;20.57;;;11.77;;
76733;SDS011;65660;53.288;14.666;2023-03-21T05:47:08;22.27;;;12.47;;
76733;SDS011;65660;53.288;14.666;2023-03-21T05:52:09;23.07;;;13.00;;
76733;SDS011;65660;53.288;14.666;2023-03-21T05:57:09;21.03;;;11.90;;
76733;SDS011;65660;53.288;14.666;2023-03-21T06:02:10;24.73;;;13.03;;
76733;SDS011;65660;53.288;14.666;2023-03-21T06:07:11;22.00;;;12.17;;
76733;SDS011;65660;53.288;14.666;2023-03-21T06:12:11;19.53;;;11.30;;
76733;SDS011;65660;53.288;14.666;2023-03-21T06:17:12;18.93;;;12.30;;
76733;SDS011;65660;53.288;14.666;2023-03-21T06:22:13;22.07;;;12.83;;
76733;SDS011;65660;53.288;14.666;2023-03-21T06:27:13;21.80;;;12.60;;
76733;SDS011;65660;53.288;14.666;2023-03-21T06:32:14;22.63;;;12.20;;
76733;SDS011;65660;53.288;14.666;2023-03-21T06:37:14;22.53;;;13.03;;
76733;SDS011;65660;53.288;14.666;2023-03-21T06:42:15;25.07;;;13.10;;
76733;SDS011;65660;53.288;14.666;2023-03-21T06:47:15;25.17;;;13.13;;
76733;SDS011;65660;53.288;14.666;2023-03-21T06:52:16;25.57;;;14.30;;
76733;SDS011;65660;53.288;14.666;2023-03-21T06:57:16;24.73;;;12.70;;
76733;SDS011;65660;53.288;14.666;2023-03-21T07:02:17;18.90;;;11.40;;
76733;SDS011;65660;53.288;14.666;2023-03-21T07:07:17;22.80;;;12.70;;
76733;SDS011;65660;53.288;14.666;2023-03-21T07:12:18;20.63;;;12.30;;
76733;SDS011;65660;53.288;14.666;2023-03-21T07:17:18;21.23;;;11.93;;
76733;SDS011;65660;53.288;14.666;2023-03-21T07:22:19;19.03;;;12.10;;
76733;SDS011;65660;53.288;14.666;2023-03-21T07:27:19;19.03;;;11.83;;
76733;SDS011;65660;53.288;14.666;2023-03-21T07:32:20;23.07;;;12.30;;
76733;SDS011;65660;53.288;14.666;2023-03-21T07:37:20;18.97;;;11.70;;
76733;SDS011;65660;53.288;14.666;2023-03-21T07:42:21;17.77;;;11.20;;
76733;SDS011;65660;53.288;14.666;2023-03-21T07:47:21;15.80;;;10.43;;
76733;SDS011;65660;53.288;14.666;2023-03-21T07:52:22;15.53;;;10.20;;
76733;SDS011;65660;53.288;14.666;2023-03-21T07:57:23;16.40;;;11.13;;
76733;SDS011;65660;53.288;14.666;2023-03-21T08:02:24;18.13;;;10.33;;
76733;SDS011;65660;53.288;14.666;2023-03-21T08:07:24;15.20;;;10.13;;
76733;SDS011;65660;53.288;14.666;2023-03-21T08:12:25;14.87;;;9.87;;
76733;SDS011;65660;53.288;14.666;2023-03-21T08:17:25;16.50;;;10.80;;
76733;SDS011;65660;53.288;14.666;2023-03-21T08:22:26;18.47;;;10.93;;
76733;SDS011;65660;53.288;14.666;2023-03-21T08:27:26;14.63;;;10.60;;
76733;SDS011;65660;53.288;14.666;2023-03-21T08:32:27;15.47;;;10.63;;
76733;SDS011;65660;53.288;14.666;2023-03-21T08:37:27;17.73;;;11.00;;
76733;SDS011;65660;53.288;14.666;2023-03-21T08:42:28;15.53;;;10.67;;
76733;SDS011;65660;53.288;14.666;2023-03-21T08:47:28;16.27;;;11.37;;
76733;SDS011;65660;53.288;14.666;2023-03-21T08:52:29;13.93;;;10.40;;
76733;SDS011;65660;53.288;14.666;2023-03-21T08:57:29;18.33;;;11.70;;
76733;SDS011;65660;53.288;14.666;2023-03-21T09:02:29;16.70;;;11.43;;
76733;SDS011;65660;53.288;14.666;2023-03-21T09:07:30;18.60;;;12.03;;
76733;SDS011;65660;53.288;14.666;2023-03-21T09:12:31;16.00;;;11.57;;
76733;SDS011;65660;53.288;14.666;2023-03-21T09:17:32;21.50;;;13.30;;
76733;SDS011;65660;53.288;14.666;2023-03-21T09:22:33;26.23;;;15.57;;
76733;SDS011;65660;53.288;14.666;2023-03-21T09:27:33;24.67;;;15.80;;
76733;SDS011;65660;53.288;14.666;2023-03-21T09:32:34;24.20;;;16.33;;
76733;SDS011;65660;53.288;14.666;2023-03-21T09:37:34;23.30;;;15.43;;
76733;SDS011;65660;53.288;14.666;2023-03-21T09:47:51;21.57;;;14.73;;
76733;SDS011;65660;53.288;14.666;2023-03-21T09:52:59;18.50;;;12.60;;
76733;SDS011;65660;53.288;14.666;2023-03-21T09:58:05;21.13;;;13.93;;
76733;SDS011;65660;53.288;14.666;2023-03-21T10:08:22;19.70;;;13.70;;
76733;SDS011;65660;53.288;14.666;2023-03-21T10:13:26;21.83;;;14.43;;
76733;SDS011;65660;53.288;14.666;2023-03-21T10:18:29;20.77;;;14.37;;
76733;SDS011;65660;53.288;14.666;2023-03-21T10:23:30;18.10;;;13.00;;
76733;SDS011;65660;53.288;14.666;2023-03-21T10:28:31;19.17;;;12.70;;
76733;SDS011;65660;53.288;14.666;2023-03-21T10:33:37;16.73;;;11.60;;
76733;SDS011;65660;53.288;14.666;2023-03-21T10:38:40;19.00;;;11.33;;
76733;SDS011;65660;53.288;14.666;2023-03-21T10:43:45;15.20;;;10.57;;
76733;SDS011;65660;53.288;14.666;2023-03-21T10:48:52;15.57;;;10.57;;
76733;SDS011;65660;53.288;14.666;2023-03-21T10:54:12;13.37;;;9.80;;
76733;SDS011;65660;53.288;14.666;2023-03-21T10:59:18;13.60;;;9.93;;
76733;SDS011;65660;53.288;14.666;2023-03-21T11:04:20;13.47;;;10.90;;
76733;SDS011;65660;53.288;14.666;2023-03-21T11:09:23;14.57;;;10.40;;
76733;SDS011;65660;53.288;14.666;2023-03-21T11:14:33;14.67;;;10.30;;
76733;SDS011;65660;53.288;14.666;2023-03-21T11:19:35;14.33;;;10.67;;
76733;SDS011;65660;53.288;14.666;2023-03-21T11:24:35;13.30;;;10.30;;
76733;SDS011;65660;53.288;14.666;2023-03-21T11:29:36;16.40;;;10.30;;
76733;SDS011;65660;53.288;14.666;2023-03-21T11:34:46;14.57;;;10.53;;
76733;SDS011;65660;53.288;14.666;2023-03-21T11:40:35;16.13;;;11.00;;
76733;SDS011;65660;53.288;14.666;2023-03-21T11:45:25;16.48;;;10.27;;
76733;SDS011;65660;53.288;14.666;2023-03-21T11:50:37;13.73;;;10.77;;
76733;SDS011;65660;53.288;14.666;2023-03-21T12:01:15;14.43;;;9.80;;
76733;SDS011;65660;53.288;14.666;2023-03-21T12:06:45;11.80;;;9.03;;
76733;SDS011;65660;53.288;14.666;2023-03-21T12:12:03;12.73;;;10.17;;
76733;SDS011;65660;53.288;14.666;2023-03-21T12:17:25;14.90;;;10.93;;
76733;SDS011;65660;53.288;14.666;2023-03-21T12:32:51;17.60;;;12.20;;
76733;SDS011;65660;53.288;14.666;2023-03-21T12:38:14;17.80;;;12.45;;
76733;SDS011;65660;53.288;14.666;2023-03-21T12:43:29;18.83;;;11.63;;
76733;SDS011;65660;53.288;14.666;2023-03-21T13:04:46;16.23;;;10.83;;
76733;SDS011;65660;53.288;14.666;2023-03-21T13:09:51;16.77;;;11.90;;
76733;SDS011;65660;53.288;14.666;2023-03-21T13:15:01;16.97;;;11.93;;
76733;SDS011;65660;53.288;14.666;2023-03-21T13:20:28;16.80;;;11.53;;
76733;SDS011;65660;53.288;14.666;2023-03-21T13:25:38;20.20;;;13.50;;
76733;SDS011;65660;53.288;14.666;2023-03-21T13:30:41;21.17;;;14.03;;
76733;SDS011;65660;53.288;14.666;2023-03-21T13:35:43;22.27;;;15.13;;
76733;SDS011;65660;53.288;14.666;2023-03-21T13:40:48;24.47;;;15.37;;
76733;SDS011;65660;53.288;14.666;2023-03-21T13:45:51;24.60;;;16.73;;
76733;SDS011;65660;53.288;14.666;2023-03-21T13:50:53;27.13;;;17.73;;
76733;SDS011;65660;53.288;14.666;2023-03-21T13:56:05;25.70;;;16.37;;
76733;SDS011;65660;53.288;14.666;2023-03-21T14:06:30;25.07;;;16.57;;
76733;SDS011;65660;53.288;14.666;2023-03-21T14:11:33;24.60;;;17.03;;
76733;SDS011;65660;53.288;14.666;2023-03-21T14:16:34;29.33;;;17.63;;
76733;SDS011;65660;53.288;14.666;2023-03-21T14:21:34;23.17;;;15.80;;
76733;SDS011;65660;53.288;14.666;2023-03-21T14:26:37;23.03;;;14.83;;
76733;SDS011;65660;53.288;14.666;2023-03-21T14:31:40;23.37;;;14.90;;
76733;SDS011;65660;53.288;14.666;2023-03-21T14:36:41;21.65;;;14.80;;
76733;SDS011;65660;53.288;14.666;2023-03-21T14:41:44;21.73;;;14.38;;
76733;SDS011;65660;53.288;14.666;2023-03-21T14:46:46;22.70;;;16.13;;
76733;SDS011;65660;53.288;14.666;2023-03-21T14:51:48;24.65;;;14.60;;
76733;SDS011;65660;53.288;14.666;2023-03-21T14:56:59;24.33;;;15.52;;
76733;SDS011;65660;53.288;14.666;2023-03-21T15:02:04;22.23;;;15.45;;
76733;SDS011;65660;53.288;14.666;2023-03-21T15:07:22;25.35;;;15.75;;
76733;SDS011;65660;53.288;14.666;2023-03-21T15:12:30;24.87;;;15.07;;
76733;SDS011;65660;53.288;14.666;2023-03-21T15:17:31;22.70;;;15.07;;
76733;SDS011;65660;53.288;14.666;2023-03-21T15:22:51;24.40;;;16.33;;
76733;SDS011;65660;53.288;14.666;2023-03-21T15:27:53;24.70;;;15.40;;
76733;SDS011;65660;53.288;14.666;2023-03-21T15:32:54;26.13;;;15.82;;
76733;SDS011;65660;53.288;14.666;2023-03-21T15:37:56;24.80;;;15.65;;
76733;SDS011;65660;53.288;14.666;2023-03-21T15:48:24;17.63;;;12.68;;
76733;SDS011;65660;53.288;14.666;2023-03-21T15:53:27;19.33;;;13.43;;
76733;SDS011;65660;53.288;14.666;2023-03-21T15:58:33;20.20;;;13.53;;
76733;SDS011;65660;53.288;14.666;2023-03-21T16:03:35;18.07;;;12.70;;
76733;SDS011;65660;53.288;14.666;2023-03-21T16:08:42;19.70;;;13.60;;
76733;SDS011;65660;53.288;14.666;2023-03-21T16:14:06;17.83;;;12.67;;
76733;SDS011;65660;53.288;14.666;2023-03-21T16:19:07;20.03;;;12.97;;
76733;SDS011;65660;53.288;14.666;2023-03-21T16:24:08;19.60;;;13.13;;
76733;SDS011;65660;53.288;14.666;2023-03-21T16:29:09;21.73;;;13.37;;
76733;SDS011;65660;53.288;14.666;2023-03-21T16:34:12;20.27;;;13.97;;
76733;SDS011;65660;53.288;14.666;2023-03-21T16:44:18;21.50;;;14.20;;
76733;SDS011;65660;53.288;14.666;2023-03-21T16:49:20;20.60;;;13.60;;
76733;SDS011;65660;53.288;14.666;2023-03-21T16:54:22;20.53;;;13.97;;
76733;SDS011;65660;53.288;14.666;2023-03-21T16:59:23;21.67;;;13.97;;
76733;SDS011;65660;53.288;14.666;2023-03-21T17:04:23;22.00;;;13.57;;
76733;SDS011;65660;53.288;14.666;2023-03-21T17:09:24;25.90;;;15.20;;
76733;SDS011;65660;53.288;14.666;2023-03-21T17:14:24;24.30;;;15.93;;
76733;SDS011;65660;53.288;14.666;2023-03-21T17:19:25;27.47;;;16.67;;
76733;SDS011;65660;53.288;14.666;2023-03-21T17:24:26;25.43;;;16.07;;
76733;SDS011;65660;53.288;14.666;2023-03-21T17:29:26;27.77;;;15.73;;
76733;SDS011;65660;53.288;14.666;2023-03-21T17:34:27;28.20;;;15.67;;
76733;SDS011;65660;53.288;14.666;2023-03-21T17:39:28;25.53;;;15.53;;
76733;SDS011;65660;53.288;14.666;2023-03-21T17:44:28;25.53;;;15.83;;
76733;SDS011;65660;53.288;14.666;2023-03-21T17:49:28;25.17;;;15.97;;
76733;SDS011;65660;53.288;14.666;2023-03-21T17:54:29;24.90;;;14.80;;
76733;SDS011;65660;53.288;14.666;2023-03-21T17:59:29;25.30;;;15.93;;
76733;SDS011;65660;53.288;14.666;2023-03-21T18:04:30;25.77;;;16.07;;
76733;SDS011;65660;53.288;14.666;2023-03-21T18:09:30;24.30;;;15.07;;
76733;SDS011;65660;53.288;14.666;2023-03-21T18:14:31;27.03;;;16.53;;
76733;SDS011;65660;53.288;14.666;2023-03-21T18:19:31;27.90;;;17.03;;
76733;SDS011;65660;53.288;14.666;2023-03-21T18:24:32;26.20;;;15.60;;
76733;SDS011;65660;53.288;14.666;2023-03-21T18:29:32;24.77;;;15.33;;
76733;SDS011;65660;53.288;14.666;2023-03-21T18:34:34;24.90;;;15.77;;
76733;SDS011;65660;53.288;14.666;2023-03-21T18:39:35;24.57;;;15.70;;
76733;SDS011;65660;53.288;14.666;2023-03-21T18:44:36;27.30;;;15.77;;
76733;SDS011;65660;53.288;14.666;2023-03-21T18:49:37;27.37;;;16.50;;
76733;SDS011;65660;53.288;14.666;2023-03-21T18:54:37;25.53;;;15.77;;
76733;SDS011;65660;53.288;14.666;2023-03-21T18:59:38;29.47;;;16.60;;
76733;SDS011;65660;53.288;14.666;2023-03-21T19:04:38;28.13;;;15.70;;
76733;SDS011;65660;53.288;14.666;2023-03-21T19:09:39;29.90;;;16.53;;
76733;SDS011;65660;53.288;14.666;2023-03-21T19:14:39;25.97;;;15.47;;
76733;SDS011;65660;53.288;14.666;2023-03-21T19:19:40;38.60;;;17.63;;
76733;SDS011;65660;53.288;14.666;2023-03-21T19:24:41;26.67;;;16.33;;
76733;SDS011;65660;53.288;14.666;2023-03-21T19:29:41;26.90;;;16.03;;
76733;SDS011;65660;53.288;14.666;2023-03-21T19:34:41;27.37;;;15.67;;
76733;SDS011;65660;53.288;14.666;2023-03-21T19:39:42;25.43;;;15.77;;
76733;SDS011;65660;53.288;14.666;2023-03-21T19:44:43;26.53;;;16.90;;
76733;SDS011;65660;53.288;14.666;2023-03-21T19:49:43;26.67;;;15.33;;
76733;SDS011;65660;53.288;14.666;2023-03-21T19:54:44;24.47;;;15.30;;
76733;SDS011;65660;53.288;14.666;2023-03-21T19:59:44;26.90;;;15.93;;
76733;SDS011;65660;53.288;14.666;2023-03-21T20:04:45;27.60;;;15.77;;
76733;SDS011;65660;53.288;14.666;2023-03-21T20:09:45;23.40;;;14.40;;
76733;SDS011;65660;53.288;14.666;2023-03-21T20:14:45;27.03;;;15.27;;
76733;SDS011;65660;53.288;14.666;2023-03-21T20:19:46;25.00;;;13.97;;
76733;SDS011;65660;53.288;14.666;2023-03-21T20:24:46;20.97;;;13.47;;
76733;SDS011;65660;53.288;14.666;2023-03-21T20:29:47;24.23;;;14.93;;
76733;SDS011;65660;53.288;14.666;2023-03-21T20:34:48;24.83;;;14.10;;
76733;SDS011;65660;53.288;14.666;2023-03-21T20:39:49;27.77;;;15.87;;
76733;SDS011;65660;53.288;14.666;2023-03-21T20:44:49;23.43;;;14.67;;
76733;SDS011;65660;53.288;14.666;2023-03-21T20:49:49;21.83;;;14.20;;
76733;SDS011;65660;53.288;14.666;2023-03-21T20:54:50;24.03;;;14.30;;
76733;SDS011;65660;53.288;14.666;2023-03-21T20:59:51;22.57;;;13.90;;
76733;SDS011;65660;53.288;14.666;2023-03-21T21:04:52;26.27;;;15.17;;
76733;SDS011;65660;53.288;14.666;2023-03-21T21:09:52;26.47;;;13.63;;
76733;SDS011;65660;53.288;14.666;2023-03-21T21:14:53;25.23;;;13.97;;
76733;SDS011;65660;53.288;14.666;2023-03-21T21:19:54;26.97;;;16.20;;
76733;SDS011;65660;53.288;14.666;2023-03-21T21:24:55;25.53;;;14.93;;
76733;SDS011;65660;53.288;14.666;2023-03-21T21:29:55;27.97;;;17.07;;
76733;SDS011;65660;53.288;14.666;2023-03-21T21:34:56;25.77;;;15.40;;
76733;SDS011;65660;53.288;14.666;2023-03-21T21:39:56;29.53;;;16.93;;
76733;SDS011;65660;53.288;14.666;2023-03-21T21:44:57;26.57;;;15.00;;
76733;SDS011;65660;53.288;14.666;2023-03-21T21:49:57;28.40;;;17.00;;
76733;SDS011;65660;53.288;14.666;2023-03-21T21:54:58;29.67;;;18.40;;
76733;SDS011;65660;53.288;14.666;2023-03-21T22:00:02;29.60;;;18.30;;
76733;SDS011;65660;53.288;14.666;2023-03-21T22:05:03;33.47;;;18.33;;
76733;SDS011;65660;53.288;14.666;2023-03-21T22:10:04;33.37;;;19.50;;
76733;SDS011;65660;53.288;14.666;2023-03-21T22:15:05;31.87;;;18.80;;
76733;SDS011;65660;53.288;14.666;2023-03-21T22:20:07;31.90;;;19.80;;
76733;SDS011;65660;53.288;14.666;2023-03-21T22:25:14;31.90;;;19.13;;
76733;SDS011;65660;53.288;14.666;2023-03-21T22:30:15;35.07;;;19.53;;
76733;SDS011;65660;53.288;14.666;2023-03-21T22:35:16;35.80;;;19.47;;
76733;SDS011;65660;53.288;14.666;2023-03-21T22:40:17;34.70;;;19.43;;
76733;SDS011;65660;53.288;14.666;2023-03-21T22:45:17;30.30;;;18.70;;
76733;SDS011;65660;53.288;14.666;2023-03-21T22:50:18;34.57;;;19.63;;
76733;SDS011;65660;53.288;14.666;2023-03-21T22:55:18;32.17;;;18.40;;
76733;SDS011;65660;53.288;14.666;2023-03-21T23:00:19;33.43;;;19.23;;
76733;SDS011;65660;53.288;14.666;2023-03-21T23:05:19;35.57;;;19.83;;
76733;SDS011;65660;53.288;14.666;2023-03-21T23:10:20;38.60;;;20.47;;
76733;SDS011;65660;53.288;14.666;2023-03-21T23:15:20;31.23;;;18.73;;
76733;SDS011;65660;53.288;14.666;2023-03-21T23:20:21;34.53;;;19.23;;
76733;SDS011;65660;53.288;14.666;2023-03-21T23:25:21;32.87;;;18.23;;
76733;SDS011;65660;53.288;14.666;2023-03-21T23:30:22;33.87;;;19.03;;
76733;SDS011;65660;53.288;14.666;2023-03-21T23:35:22;31.90;;;18.20;;
76733;SDS011;65660;53.288;14.666;2023-03-21T23:40:23;31.10;;;18.43;;
76733;SDS011;65660;53.288;14.666;2023-03-21T23:45:24;31.57;;;18.73;;
76733;SDS011;65660;53.288;14.666;2023-03-21T23:50:24;33.10;;;19.00;;
76733;SDS011;65660;53.288;14.666;2023-03-21T23:55:25;34.90;;;20.07;;
